createdAt,value
2019-06-08T00:00:29.216Z,0.00
2019-06-08T00:01:29.205Z,0.00
2019-06-08T00:02:29.216Z,0.00
2019-06-08T00:03:29.181Z,0.00
2019-06-08T00:04:29.177Z,0.00
2019-06-08T00:05:29.160Z,0.00
2019-06-08T00:06:29.157Z,0.00
2019-06-08T00:07:29.139Z,0.00
2019-06-08T00:08:29.136Z,0.00
2019-06-08T00:09:29.118Z,0.00
2019-06-08T00:10:29.110Z,0.00
2019-06-08T00:11:29.095Z,0.00
2019-06-08T00:12:29.087Z,0.00
2019-06-08T00:13:29.077Z,0.00
2019-06-08T00:14:29.063Z,0.00
2019-06-08T00:15:29.071Z,0.00
2019-06-08T00:16:29.045Z,0.00
2019-06-08T00:17:38.063Z,0.00
2019-06-08T00:18:30.022Z,0.00
2019-06-08T00:19:29.014Z,0.00
2019-06-08T00:20:28.998Z,0.00
2019-06-08T00:21:28.995Z,0.00
2019-06-08T00:22:28.988Z,0.00
2019-06-08T00:23:28.969Z,0.00
2019-06-08T00:24:29.104Z,0.00
2019-06-08T00:25:28.946Z,0.00
2019-06-08T00:26:28.970Z,0.00
2019-06-08T00:27:28.927Z,0.00
2019-06-08T00:28:28.915Z,0.00
2019-06-08T00:29:28.974Z,0.00
2019-06-08T00:30:28.954Z,0.00
2019-06-08T00:31:28.883Z,0.00
2019-06-08T00:32:28.872Z,0.00
2019-06-08T00:33:28.866Z,0.00
2019-06-08T00:34:28.894Z,0.00
2019-06-08T00:35:28.866Z,0.00
2019-06-08T00:36:28.829Z,0.00
2019-06-08T00:37:28.823Z,0.00
2019-06-08T00:38:28.818Z,0.00
2019-06-08T00:39:28.808Z,0.00
2019-06-08T00:40:28.794Z,0.00
2019-06-08T00:41:28.777Z,0.00
2019-06-08T00:42:28.764Z,0.00
2019-06-08T00:43:28.757Z,0.00
2019-06-08T00:44:28.744Z,0.00
2019-06-08T00:45:28.742Z,0.00
2019-06-08T00:46:28.723Z,0.00
2019-06-08T00:47:46.592Z,0.00
2019-06-08T00:48:29.696Z,0.00
2019-06-08T00:49:29.126Z,0.00
2019-06-08T00:50:29.364Z,0.00
2019-06-08T00:51:29.775Z,0.00
2019-06-08T00:52:29.407Z,0.00
2019-06-08T00:53:29.601Z,0.00
2019-06-08T00:54:29.803Z,0.00
2019-06-08T00:55:29.775Z,0.00
2019-06-08T00:56:29.959Z,0.00
2019-06-08T00:57:28.599Z,0.00
2019-06-08T00:58:28.592Z,0.00
2019-06-08T00:59:28.579Z,0.00
2019-06-08T01:00:28.569Z,0.00
2019-06-08T01:01:28.582Z,0.00
2019-06-08T01:02:28.901Z,0.00
2019-06-08T01:03:29.764Z,0.00
2019-06-08T01:04:29.114Z,0.00
2019-06-08T01:05:28.513Z,0.00
2019-06-08T01:06:29.796Z,0.00
2019-06-08T01:07:28.497Z,0.00
2019-06-08T01:08:29.321Z,0.00
2019-06-08T01:09:28.482Z,0.00
2019-06-08T01:10:29.651Z,0.00
2019-06-08T01:11:28.861Z,0.00
2019-06-08T01:12:29.036Z,0.00
2019-06-08T01:13:28.983Z,0.00
2019-06-08T01:14:29.133Z,0.00
2019-06-08T01:15:32.929Z,0.00
2019-06-08T01:16:29.415Z,0.00
2019-06-08T01:17:29.354Z,0.00
2019-06-08T01:18:29.372Z,0.00
2019-06-08T01:19:29.545Z,0.00
2019-06-08T01:20:29.483Z,0.00
2019-06-08T01:21:29.905Z,0.00
2019-06-08T01:22:29.535Z,0.00
2019-06-08T01:23:29.787Z,0.00
2019-06-08T01:24:28.333Z,0.00
2019-06-08T01:25:28.312Z,0.00
2019-06-08T01:26:28.307Z,0.00
2019-06-08T01:27:28.309Z,0.00
2019-06-08T01:28:28.297Z,0.00
2019-06-08T01:29:28.433Z,0.00
2019-06-08T01:30:28.540Z,0.00
2019-06-08T01:31:28.423Z,0.00
2019-06-08T01:32:28.582Z,0.00
2019-06-08T01:33:28.764Z,0.00
2019-06-08T01:34:29.048Z,0.00
2019-06-08T01:35:28.848Z,0.00
2019-06-08T01:36:29.176Z,0.00
2019-06-08T01:37:29.098Z,0.00
2019-06-08T01:38:29.148Z,0.00
2019-06-08T01:39:29.398Z,0.00
2019-06-08T01:40:29.486Z,0.00
2019-06-08T01:41:29.535Z,0.00
2019-06-08T01:42:28.118Z,0.00
2019-06-08T01:43:28.113Z,0.00
2019-06-08T01:44:28.164Z,0.00
2019-06-08T01:45:28.081Z,0.00
2019-06-08T01:46:28.317Z,0.00
2019-06-08T01:47:28.334Z,0.00
2019-06-08T01:48:28.272Z,0.00
2019-06-08T01:49:28.427Z,0.00
2019-06-08T01:50:28.453Z,0.00
2019-06-08T01:51:28.592Z,0.00
2019-06-08T01:52:28.874Z,0.00
2019-06-08T01:53:28.859Z,0.00
2019-06-08T01:54:29.747Z,0.00
2019-06-08T01:55:29.015Z,0.00
2019-06-08T01:56:29.155Z,0.00
2019-06-08T01:57:29.286Z,0.00
2019-06-08T01:58:27.955Z,0.00
2019-06-08T01:59:27.930Z,0.00
2019-06-08T02:00:30.610Z,0.00
2019-06-08T02:01:29.897Z,0.00
2019-06-08T02:02:27.920Z,0.00
2019-06-08T02:03:28.139Z,0.00
2019-06-08T02:04:28.174Z,0.00
2019-06-08T02:05:28.194Z,0.00
2019-06-08T02:06:28.453Z,0.00
2019-06-08T02:07:28.379Z,0.00
2019-06-08T02:08:28.599Z,0.00
2019-06-08T02:09:28.680Z,0.00
2019-06-08T02:10:28.831Z,0.00
2019-06-08T02:11:28.825Z,0.00
2019-06-08T02:12:28.860Z,0.00
2019-06-08T02:13:28.878Z,0.00
2019-06-08T02:14:29.085Z,0.00
2019-06-08T02:15:29.030Z,0.00
2019-06-08T02:16:27.738Z,0.00
2019-06-08T02:17:27.739Z,0.00
2019-06-08T02:18:39.947Z,0.00
2019-06-08T02:19:28.704Z,0.00
2019-06-08T02:20:28.715Z,0.00
2019-06-08T02:21:28.850Z,0.00
2019-06-08T02:22:28.832Z,0.00
2019-06-08T02:23:28.867Z,0.00
2019-06-08T02:24:27.652Z,0.00
2019-06-08T02:25:27.652Z,0.00
2019-06-08T02:26:29.261Z,0.00
2019-06-08T02:27:27.635Z,0.00
2019-06-08T02:28:27.609Z,0.00
2019-06-08T02:29:27.593Z,0.00
2019-06-08T02:30:28.364Z,0.00
2019-06-08T02:31:27.953Z,0.00
2019-06-08T02:32:28.544Z,0.00
2019-06-08T02:33:28.326Z,0.00
2019-06-08T02:34:28.326Z,0.00
2019-06-08T02:35:27.977Z,0.00
2019-06-08T02:36:28.927Z,0.00
2019-06-08T02:37:28.722Z,0.00
2019-06-08T02:38:27.654Z,0.00
2019-06-08T02:39:28.499Z,0.00
2019-06-08T02:40:27.571Z,0.00
2019-06-08T02:41:28.990Z,0.00
2019-06-08T02:42:28.402Z,0.00
2019-06-08T02:43:28.900Z,0.00
2019-06-08T02:44:28.265Z,0.00
2019-06-08T02:45:29.474Z,0.00
2019-06-08T02:46:29.060Z,0.00
2019-06-08T02:47:28.380Z,0.00
2019-06-08T02:48:29.292Z,0.00
2019-06-08T02:49:29.006Z,0.00
2019-06-08T02:50:28.488Z,0.00
2019-06-08T02:51:28.767Z,0.00
2019-06-08T02:52:27.363Z,0.00
2019-06-08T02:53:29.076Z,0.00
2019-06-08T02:54:27.317Z,0.00
2019-06-08T02:55:28.710Z,0.00
2019-06-08T02:56:27.306Z,0.00
2019-06-08T02:57:29.040Z,0.00
2019-06-08T02:58:29.104Z,0.00
2019-06-08T02:59:27.260Z,0.00
2019-06-08T03:00:27.250Z,4.00
2019-06-08T03:01:27.239Z,4.00
2019-06-08T03:02:27.235Z,4.00
2019-06-08T03:03:27.228Z,4.00
2019-06-08T03:04:27.206Z,0.00
2019-06-08T03:05:27.195Z,0.00
2019-06-08T03:06:27.183Z,0.00
2019-06-08T03:07:27.172Z,0.00
2019-06-08T03:08:27.167Z,4.00
2019-06-08T03:09:27.169Z,0.00
2019-06-08T03:10:27.140Z,0.00
2019-06-08T03:11:27.131Z,0.00
2019-06-08T03:12:27.126Z,4.00
2019-06-08T03:13:27.106Z,0.00
2019-06-08T03:14:27.099Z,0.00
2019-06-08T03:15:27.085Z,0.00
2019-06-08T03:16:27.079Z,0.00
2019-06-08T03:17:27.065Z,0.00
2019-06-08T03:18:27.060Z,4.00
2019-06-08T03:19:27.042Z,0.00
2019-06-08T03:20:27.036Z,0.00
2019-06-08T03:21:27.018Z,0.00
2019-06-08T03:22:27.007Z,0.00
2019-06-08T03:23:26.996Z,0.00
2019-06-08T03:24:26.985Z,0.00
2019-06-08T03:25:26.982Z,0.00
2019-06-08T03:26:26.965Z,0.00
2019-06-08T03:27:26.959Z,0.00
2019-06-08T03:28:26.950Z,4.00
2019-06-08T03:29:26.940Z,0.00
2019-06-08T03:30:26.941Z,0.00
2019-06-08T03:31:26.923Z,0.00
2019-06-08T03:32:26.901Z,0.00
2019-06-08T03:33:26.887Z,4.00
2019-06-08T03:34:26.877Z,0.00
2019-06-08T03:35:26.869Z,0.00
2019-06-08T03:36:26.853Z,0.00
2019-06-08T03:37:26.873Z,0.00
2019-06-08T03:38:26.840Z,0.00
2019-06-08T03:39:26.820Z,4.00
2019-06-08T03:40:26.807Z,0.00
2019-06-08T03:41:26.811Z,0.00
2019-06-08T03:42:26.796Z,0.00
2019-06-08T03:43:26.775Z,4.00
2019-06-08T03:44:26.774Z,4.00
2019-06-08T03:45:26.760Z,4.00
2019-06-08T03:46:26.744Z,4.00
2019-06-08T03:47:26.736Z,4.00
2019-06-08T03:48:26.723Z,4.00
2019-06-08T03:49:41.015Z,4.00
2019-06-08T03:50:27.695Z,4.00
2019-06-08T03:51:26.687Z,4.00
2019-06-08T03:52:26.678Z,4.00
2019-06-08T03:53:26.666Z,4.00
2019-06-08T03:54:26.656Z,4.00
2019-06-08T03:55:26.643Z,0.00
2019-06-08T03:56:26.633Z,0.00
2019-06-08T03:57:26.621Z,0.00
2019-06-08T03:58:26.621Z,0.00
2019-06-08T03:59:26.611Z,4.00
2019-06-08T04:00:26.593Z,4.00
2019-06-08T04:01:26.585Z,0.00
2019-06-08T04:02:26.586Z,4.00
2019-06-08T04:03:26.559Z,4.00
2019-06-08T04:04:26.558Z,0.00
2019-06-08T04:05:26.539Z,4.00
2019-06-08T04:06:26.521Z,4.00
2019-06-08T04:07:26.529Z,0.00
2019-06-08T04:08:26.507Z,4.00
2019-06-08T04:09:26.491Z,4.00
2019-06-08T04:10:26.480Z,0.00
2019-06-08T04:11:26.478Z,4.00
2019-06-08T04:12:26.458Z,0.00
2019-06-08T04:13:26.462Z,4.00
2019-06-08T04:14:26.437Z,4.00
2019-06-08T04:15:26.435Z,0.00
2019-06-08T04:16:26.414Z,4.00
2019-06-08T04:17:26.404Z,4.00
2019-06-08T04:18:26.390Z,4.00
2019-06-08T04:19:26.380Z,4.00
2019-06-08T04:20:26.369Z,4.00
2019-06-08T04:21:26.363Z,4.00
2019-06-08T04:22:26.349Z,4.00
2019-06-08T04:23:26.342Z,4.00
2019-06-08T04:24:26.324Z,4.00
2019-06-08T04:25:26.333Z,4.00
2019-06-08T04:26:26.301Z,4.00
2019-06-08T04:27:26.316Z,4.00
2019-06-08T04:28:26.287Z,4.00
2019-06-08T04:29:26.291Z,4.00
2019-06-08T04:30:26.267Z,4.00
2019-06-08T04:31:26.261Z,4.00
2019-06-08T04:32:26.242Z,4.00
2019-06-08T04:33:26.227Z,4.00
2019-06-08T04:34:26.218Z,4.00
2019-06-08T04:35:26.206Z,4.00
2019-06-08T04:36:26.195Z,4.00
2019-06-08T04:37:26.187Z,4.00
2019-06-08T04:38:26.172Z,8.00
2019-06-08T04:39:26.159Z,8.00
2019-06-08T04:40:26.160Z,8.00
2019-06-08T04:41:26.137Z,4.00
2019-06-08T04:42:26.132Z,8.00
2019-06-08T04:43:26.121Z,8.00
2019-06-08T04:44:26.127Z,8.00
2019-06-08T04:45:26.148Z,8.00
2019-06-08T04:46:26.091Z,8.00
2019-06-08T04:47:26.071Z,8.00
2019-06-08T04:48:26.066Z,12.00
2019-06-08T04:49:26.054Z,12.00
2019-06-08T04:50:26.043Z,12.00
2019-06-08T04:51:26.036Z,8.00
2019-06-08T04:52:26.033Z,8.00
2019-06-08T04:53:26.005Z,12.00
2019-06-08T04:54:26.012Z,12.00
2019-06-08T04:55:25.993Z,8.00
2019-06-08T04:56:25.974Z,12.00
2019-06-08T04:57:25.965Z,12.00
2019-06-08T04:58:25.949Z,12.00
2019-06-08T04:59:25.955Z,12.00
2019-06-08T05:00:25.932Z,8.00
2019-06-08T05:01:25.921Z,12.00
2019-06-08T05:02:25.908Z,12.00
2019-06-08T05:03:25.903Z,8.00
2019-06-08T05:04:25.886Z,12.00
2019-06-08T05:05:25.882Z,8.00
2019-06-08T05:06:25.863Z,12.00
2019-06-08T05:07:25.850Z,12.00
2019-06-08T05:08:25.857Z,16.00
2019-06-08T05:09:25.831Z,20.00
2019-06-08T05:10:25.821Z,20.00
2019-06-08T05:11:25.809Z,24.00
2019-06-08T05:12:25.798Z,24.00
2019-06-08T05:13:25.783Z,28.00
2019-06-08T05:14:25.779Z,28.00
2019-06-08T05:15:25.772Z,32.00
2019-06-08T05:16:25.757Z,28.00
2019-06-08T05:17:25.741Z,28.00
2019-06-08T05:18:26.144Z,28.00
2019-06-08T05:19:25.734Z,32.00
2019-06-08T05:20:38.545Z,24.00
2019-06-08T05:21:26.695Z,60.00
2019-06-08T05:22:25.694Z,20.00
2019-06-08T05:23:25.694Z,20.00
2019-06-08T05:24:25.668Z,24.00
2019-06-08T05:25:25.655Z,24.00
2019-06-08T05:26:25.651Z,28.00
2019-06-08T05:27:25.632Z,32.00
2019-06-08T05:28:25.619Z,36.00
2019-06-08T05:29:25.610Z,40.00
2019-06-08T05:30:28.124Z,44.00
2019-06-08T05:31:25.598Z,40.00
2019-06-08T05:32:25.587Z,40.00
2019-06-08T05:33:25.579Z,40.00
2019-06-08T05:34:25.586Z,44.00
2019-06-08T05:35:25.544Z,52.00
2019-06-08T05:36:25.533Z,96.00
2019-06-08T05:37:25.523Z,164.00
2019-06-08T05:38:25.513Z,188.00
2019-06-08T05:39:25.502Z,228.00
2019-06-08T05:40:25.519Z,228.00
2019-06-08T05:41:25.481Z,232.00
2019-06-08T05:42:25.468Z,232.00
2019-06-08T05:43:25.460Z,236.00
2019-06-08T05:44:25.480Z,96.00
2019-06-08T05:45:25.438Z,124.00
2019-06-08T05:46:25.428Z,240.00
2019-06-08T05:47:25.416Z,244.00
2019-06-08T05:48:25.412Z,252.00
2019-06-08T05:49:25.410Z,252.00
2019-06-08T05:50:25.382Z,248.00
2019-06-08T05:51:25.370Z,252.00
2019-06-08T05:52:25.363Z,252.00
2019-06-08T05:53:25.362Z,252.00
2019-06-08T05:54:25.343Z,256.00
2019-06-08T05:55:25.334Z,256.00
2019-06-08T05:56:25.313Z,256.00
2019-06-08T05:57:25.303Z,256.00
2019-06-08T05:58:25.293Z,260.00
2019-06-08T05:59:25.282Z,260.00
2019-06-08T06:00:25.271Z,264.00
2019-06-08T06:01:25.260Z,264.00
2019-06-08T06:02:25.249Z,268.00
2019-06-08T06:03:25.243Z,268.00
2019-06-08T06:04:25.225Z,268.00
2019-06-08T06:05:25.215Z,272.00
2019-06-08T06:06:25.212Z,268.00
2019-06-08T06:07:25.198Z,272.00
2019-06-08T06:08:25.184Z,272.00
2019-06-08T06:09:25.175Z,272.00
2019-06-08T06:10:25.164Z,276.00
2019-06-08T06:11:25.153Z,280.00
2019-06-08T06:12:25.148Z,284.00
2019-06-08T06:13:25.128Z,284.00
2019-06-08T06:14:25.117Z,288.00
2019-06-08T06:15:25.105Z,292.00
2019-06-08T06:16:25.112Z,292.00
2019-06-08T06:17:25.091Z,292.00
2019-06-08T06:18:25.172Z,296.00
2019-06-08T06:19:25.062Z,152.00
2019-06-08T06:20:25.053Z,316.00
2019-06-08T06:21:25.040Z,316.00
2019-06-08T06:22:25.301Z,312.00
2019-06-08T06:23:25.034Z,316.00
2019-06-08T06:24:25.032Z,328.00
2019-06-08T06:25:25.047Z,312.00
2019-06-08T06:26:24.987Z,348.00
2019-06-08T06:27:25.021Z,260.00
2019-06-08T06:28:24.979Z,224.00
2019-06-08T06:29:24.963Z,244.00
2019-06-08T06:30:24.947Z,204.00
2019-06-08T06:31:24.939Z,200.00
2019-06-08T06:32:24.928Z,112.00
2019-06-08T06:33:24.920Z,108.00
2019-06-08T06:34:24.905Z,156.00
2019-06-08T06:35:24.896Z,92.00
2019-06-08T06:36:24.884Z,96.00
2019-06-08T06:37:24.866Z,108.00
2019-06-08T06:38:24.883Z,100.00
2019-06-08T06:39:24.854Z,76.00
2019-06-08T06:40:24.839Z,72.00
2019-06-08T06:41:24.823Z,64.00
2019-06-08T06:42:25.279Z,60.00
2019-06-08T06:43:24.803Z,56.00
2019-06-08T06:44:24.789Z,52.00
2019-06-08T06:45:24.785Z,56.00
2019-06-08T06:46:24.771Z,52.00
2019-06-08T06:47:24.763Z,44.00
2019-06-08T06:48:24.750Z,36.00
2019-06-08T06:49:24.736Z,32.00
2019-06-08T06:50:24.723Z,32.00
2019-06-08T06:51:26.633Z,36.00
2019-06-08T06:52:24.726Z,44.00
2019-06-08T06:53:24.838Z,56.00
2019-06-08T06:54:24.682Z,72.00
2019-06-08T06:55:25.558Z,84.00
2019-06-08T06:56:24.686Z,100.00
2019-06-08T06:57:24.649Z,132.00
2019-06-08T06:58:24.645Z,412.00
2019-06-08T06:59:24.633Z,352.00
2019-06-08T07:00:24.615Z,272.00
2019-06-08T07:01:24.617Z,396.00
2019-06-08T07:02:24.594Z,224.00
2019-06-08T07:03:24.583Z,104.00
2019-06-08T07:04:24.579Z,108.00
2019-06-08T07:05:24.563Z,400.00
2019-06-08T07:06:24.555Z,176.00
2019-06-08T07:07:24.540Z,324.00
2019-06-08T07:08:24.529Z,380.00
2019-06-08T07:09:24.515Z,368.00
2019-06-08T07:10:24.507Z,392.00
2019-06-08T07:11:24.540Z,392.00
2019-06-08T07:12:24.487Z,384.00
2019-06-08T07:13:24.474Z,384.00
2019-06-08T07:14:24.462Z,400.00
2019-06-08T07:15:24.459Z,404.00
2019-06-08T07:16:24.443Z,388.00
2019-06-08T07:17:24.432Z,140.00
2019-06-08T07:18:24.418Z,300.00
2019-06-08T07:19:24.463Z,392.00
2019-06-08T07:20:24.406Z,396.00
2019-06-08T07:21:24.398Z,264.00
2019-06-08T07:22:24.375Z,392.00
2019-06-08T07:23:24.363Z,392.00
2019-06-08T07:24:24.357Z,372.00
2019-06-08T07:25:24.353Z,392.00
2019-06-08T07:26:24.334Z,400.00
2019-06-08T07:27:24.331Z,408.00
2019-06-08T07:28:24.333Z,172.00
2019-06-08T07:29:24.298Z,200.00
2019-06-08T07:30:24.292Z,152.00
2019-06-08T07:31:24.281Z,84.00
2019-06-08T07:32:24.266Z,76.00
2019-06-08T07:33:24.260Z,68.00
2019-06-08T07:34:24.247Z,72.00
2019-06-08T07:35:24.234Z,64.00
2019-06-08T07:36:24.221Z,64.00
2019-06-08T07:37:24.214Z,60.00
2019-06-08T07:38:24.212Z,64.00
2019-06-08T07:39:24.196Z,76.00
2019-06-08T07:40:24.180Z,92.00
2019-06-08T07:41:24.178Z,104.00
2019-06-08T07:42:24.157Z,100.00
2019-06-08T07:43:24.153Z,100.00
2019-06-08T07:44:24.137Z,96.00
2019-06-08T07:45:24.126Z,92.00
2019-06-08T07:46:24.116Z,112.00
2019-06-08T07:47:24.104Z,92.00
2019-06-08T07:48:24.095Z,92.00
2019-06-08T07:49:24.083Z,100.00
2019-06-08T07:50:24.183Z,100.00
2019-06-08T07:51:24.061Z,100.00
2019-06-08T07:52:24.050Z,92.00
2019-06-08T07:53:24.039Z,80.00
2019-06-08T07:54:24.026Z,84.00
2019-06-08T07:55:24.024Z,72.00
2019-06-08T07:56:24.006Z,88.00
2019-06-08T07:57:23.994Z,68.00
2019-06-08T07:58:23.982Z,68.00
2019-06-08T07:59:23.972Z,60.00
2019-06-08T08:00:23.963Z,52.00
2019-06-08T08:01:35.803Z,44.00
2019-06-08T08:02:24.940Z,40.00
2019-06-08T08:03:23.928Z,32.00
2019-06-08T08:04:23.915Z,32.00
2019-06-08T08:05:23.905Z,32.00
2019-06-08T08:06:23.900Z,28.00
2019-06-08T08:07:23.890Z,28.00
2019-06-08T08:08:23.878Z,28.00
2019-06-08T08:09:23.861Z,24.00
2019-06-08T08:10:23.849Z,28.00
2019-06-08T08:11:23.855Z,32.00
2019-06-08T08:12:23.833Z,36.00
2019-06-08T08:13:23.826Z,36.00
2019-06-08T08:14:23.810Z,36.00
2019-06-08T08:15:23.795Z,36.00
2019-06-08T08:16:23.788Z,44.00
2019-06-08T08:17:23.773Z,44.00
2019-06-08T08:18:23.771Z,48.00
2019-06-08T08:19:23.752Z,48.00
2019-06-08T08:20:23.745Z,44.00
2019-06-08T08:21:26.388Z,48.00
2019-06-08T08:22:26.551Z,48.00
2019-06-08T08:23:23.709Z,52.00
2019-06-08T08:24:23.708Z,60.00
2019-06-08T08:25:23.688Z,60.00
2019-06-08T08:26:23.676Z,60.00
2019-06-08T08:27:23.668Z,64.00
2019-06-08T08:28:23.660Z,60.00
2019-06-08T08:29:23.643Z,48.00
2019-06-08T08:30:23.637Z,44.00
2019-06-08T08:31:23.639Z,40.00
2019-06-08T08:32:23.614Z,36.00
2019-06-08T08:33:23.602Z,36.00
2019-06-08T08:34:23.593Z,36.00
2019-06-08T08:35:23.580Z,32.00
2019-06-08T08:36:23.566Z,32.00
2019-06-08T08:37:23.558Z,28.00
2019-06-08T08:38:23.548Z,28.00
2019-06-08T08:39:23.543Z,28.00
2019-06-08T08:40:23.530Z,28.00
2019-06-08T08:41:23.518Z,28.00
2019-06-08T08:42:23.501Z,28.00
2019-06-08T08:43:23.495Z,28.00
2019-06-08T08:44:23.482Z,28.00
2019-06-08T08:45:23.473Z,36.00
2019-06-08T08:46:23.457Z,48.00
2019-06-08T08:47:23.467Z,72.00
2019-06-08T08:48:28.106Z,56.00
2019-06-08T08:49:24.431Z,52.00
2019-06-08T08:50:23.416Z,48.00
2019-06-08T08:51:23.403Z,48.00
2019-06-08T08:52:34.443Z,48.00
2019-06-08T08:53:24.381Z,40.00
2019-06-08T08:54:23.371Z,40.00
2019-06-08T08:55:23.366Z,36.00
2019-06-08T08:56:23.351Z,36.00
2019-06-08T08:57:23.349Z,36.00
2019-06-08T08:58:23.327Z,36.00
2019-06-08T08:59:23.326Z,32.00
2019-06-08T09:00:23.329Z,28.00
2019-06-08T09:01:23.293Z,32.00
2019-06-08T09:02:23.293Z,32.00
2019-06-08T09:03:29.407Z,28.00
2019-06-08T09:04:24.261Z,28.00
2019-06-08T09:05:23.252Z,28.00
2019-06-08T09:06:23.239Z,24.00
2019-06-08T09:07:23.228Z,20.00
2019-06-08T09:08:23.548Z,20.00
2019-06-08T09:09:23.243Z,20.00
2019-06-08T09:10:23.197Z,20.00
2019-06-08T09:11:23.187Z,20.00
2019-06-08T09:12:23.179Z,20.00
2019-06-08T09:13:23.167Z,20.00
2019-06-08T09:14:23.153Z,20.00
2019-06-08T09:15:23.165Z,20.00
2019-06-08T09:16:23.133Z,16.00
2019-06-08T09:17:23.122Z,20.00
2019-06-08T09:18:23.113Z,20.00
2019-06-08T09:19:23.101Z,24.00
2019-06-08T09:20:23.105Z,24.00
2019-06-08T09:21:23.090Z,24.00
2019-06-08T09:22:23.073Z,28.00
2019-06-08T09:23:23.057Z,24.00
2019-06-08T09:24:23.050Z,24.00
2019-06-08T09:25:23.042Z,24.00
2019-06-08T09:26:23.025Z,24.00
2019-06-08T09:27:23.038Z,24.00
2019-06-08T09:28:23.013Z,24.00
2019-06-08T09:29:22.994Z,24.00
2019-06-08T09:30:22.994Z,28.00
2019-06-08T09:31:22.975Z,24.00
2019-06-08T09:32:22.960Z,24.00
2019-06-08T09:33:22.973Z,28.00
2019-06-08T09:40:32.852Z,24.00
2019-06-08T09:41:11.866Z,28.00
2019-06-08T09:42:42.449Z,32.00
2019-06-08T09:43:42.283Z,32.00
2019-06-08T09:45:12.754Z,44.00
2019-06-08T09:46:12.726Z,76.00
2019-06-08T09:47:43.199Z,72.00
2019-06-08T09:48:43.205Z,80.00
2019-06-08T09:50:13.655Z,72.00
2019-06-08T09:51:13.627Z,64.00
2019-06-08T09:52:44.106Z,60.00
2019-06-08T09:53:44.095Z,52.00
2019-06-08T09:54:44.081Z,48.00
2019-06-08T09:55:44.085Z,48.00
2019-06-08T09:56:44.056Z,40.00
2019-06-08T09:57:44.047Z,40.00
2019-06-08T09:58:44.042Z,40.00
2019-06-08T09:59:44.026Z,36.00
2019-06-08T10:00:44.022Z,36.00
2019-06-08T10:01:44.007Z,36.00
2019-06-08T10:02:43.993Z,36.00
2019-06-08T10:03:43.984Z,32.00
2019-06-08T10:04:43.969Z,28.00
2019-06-08T10:05:43.961Z,28.00
2019-06-08T10:06:43.956Z,28.00
2019-06-08T10:07:43.935Z,28.00
2019-06-08T10:08:43.929Z,28.00
2019-06-08T10:09:43.915Z,28.00
2019-06-08T10:10:43.912Z,28.00
2019-06-08T10:11:43.928Z,28.00
2019-06-08T10:12:43.885Z,28.00
2019-06-08T10:13:43.898Z,28.00
2019-06-08T10:14:43.871Z,24.00
2019-06-08T10:15:43.848Z,28.00
2019-06-08T10:16:43.862Z,32.00
2019-06-08T10:17:43.825Z,32.00
2019-06-08T10:18:43.838Z,28.00
2019-06-08T10:19:43.812Z,32.00
2019-06-08T10:20:43.810Z,32.00
2019-06-08T10:21:43.798Z,32.00
2019-06-08T10:22:43.771Z,32.00
2019-06-08T10:23:43.765Z,32.00
2019-06-08T10:24:43.749Z,32.00
2019-06-08T10:25:43.736Z,32.00
2019-06-08T10:26:43.743Z,32.00
2019-06-08T10:27:43.726Z,32.00
2019-06-08T10:28:43.710Z,32.00
2019-06-08T10:29:43.702Z,28.00
2019-06-08T10:30:43.687Z,32.00
2019-06-08T10:31:44.088Z,36.00
2019-06-08T10:32:43.662Z,44.00
2019-06-08T10:33:43.659Z,48.00
2019-06-08T10:34:43.641Z,52.00
2019-06-08T10:35:43.632Z,52.00
2019-06-08T10:36:43.620Z,56.00
2019-06-08T10:37:43.622Z,48.00
2019-06-08T10:38:43.725Z,44.00
2019-06-08T10:39:43.587Z,36.00
2019-06-08T10:40:43.579Z,36.00
2019-06-08T10:41:43.562Z,32.00
2019-06-08T10:42:43.557Z,28.00
2019-06-08T10:43:43.563Z,28.00
2019-06-08T10:44:43.534Z,28.00
2019-06-08T10:45:43.524Z,32.00
2019-06-08T10:46:43.524Z,28.00
2019-06-08T10:47:43.507Z,28.00
2019-06-08T10:48:43.495Z,28.00
2019-06-08T10:49:43.489Z,28.00
2019-06-08T10:50:43.478Z,32.00
2019-06-08T10:51:43.472Z,32.00
2019-06-08T10:52:43.455Z,36.00
2019-06-08T10:53:49.210Z,40.00
2019-06-08T10:54:44.431Z,40.00
2019-06-08T10:55:43.413Z,40.00
2019-06-08T10:56:43.423Z,44.00
2019-06-08T10:57:43.395Z,44.00
2019-06-08T10:58:43.395Z,48.00
2019-06-08T10:59:43.373Z,48.00
2019-06-08T11:00:43.377Z,56.00
2019-06-08T11:01:43.353Z,60.00
2019-06-08T11:02:43.347Z,60.00
2019-06-08T11:03:43.400Z,56.00
2019-06-08T11:04:43.604Z,52.00
2019-06-08T11:05:43.308Z,56.00
2019-06-08T11:06:43.300Z,60.00
2019-06-08T11:07:43.285Z,60.00
2019-06-08T11:08:43.275Z,56.00
2019-06-08T11:09:43.262Z,60.00
2019-06-08T11:10:43.258Z,60.00
2019-06-08T11:11:43.250Z,64.00
2019-06-08T11:12:43.236Z,68.00
2019-06-08T11:13:43.241Z,68.00
2019-06-08T11:14:43.212Z,68.00
2019-06-08T11:15:43.207Z,64.00
2019-06-08T11:16:43.243Z,60.00
2019-06-08T11:17:43.183Z,64.00
2019-06-08T11:18:43.177Z,64.00
2019-06-08T11:19:43.166Z,72.00
2019-06-08T11:20:43.152Z,68.00
2019-06-08T11:21:43.140Z,64.00
2019-06-08T11:22:43.132Z,60.00
2019-06-08T11:23:43.115Z,60.00
2019-06-08T11:24:43.102Z,60.00
2019-06-08T11:25:43.135Z,60.00
2019-06-08T11:26:43.084Z,60.00
2019-06-08T11:27:43.066Z,60.00
2019-06-08T11:28:43.057Z,60.00
2019-06-08T11:29:43.056Z,60.00
2019-06-08T11:30:43.032Z,60.00
2019-06-08T11:31:43.034Z,56.00
2019-06-08T11:32:43.054Z,68.00
2019-06-08T11:33:43.007Z,72.00
2019-06-08T11:34:42.990Z,64.00
2019-06-08T11:35:42.977Z,76.00
2019-06-08T11:36:43.008Z,72.00
2019-06-08T11:37:42.971Z,68.00
2019-06-08T11:38:42.957Z,68.00
2019-06-08T11:39:42.942Z,60.00
2019-06-08T11:40:42.937Z,52.00
2019-06-08T11:41:42.915Z,64.00
2019-06-08T11:42:42.927Z,56.00
2019-06-08T11:43:42.910Z,52.00
2019-06-08T11:44:42.892Z,48.00
2019-06-08T11:45:42.867Z,52.00
2019-06-08T11:46:43.074Z,48.00
2019-06-08T11:47:42.853Z,48.00
2019-06-08T11:48:42.851Z,44.00
2019-06-08T11:49:42.824Z,44.00
2019-06-08T11:50:42.813Z,44.00
2019-06-08T11:51:42.802Z,48.00
2019-06-08T11:52:42.809Z,48.00
2019-06-08T11:53:42.920Z,48.00
2019-06-08T11:54:42.769Z,32.00
2019-06-08T11:55:42.772Z,40.00
2019-06-08T11:56:42.747Z,44.00
2019-06-08T11:57:42.743Z,36.00
2019-06-08T11:58:42.723Z,44.00
2019-06-08T11:59:42.720Z,40.00
2019-06-08T12:00:42.702Z,40.00
2019-06-08T12:01:42.704Z,36.00
2019-06-08T12:02:42.679Z,40.00
2019-06-08T12:03:42.667Z,40.00
2019-06-08T12:04:42.658Z,40.00
2019-06-08T12:05:42.645Z,36.00
2019-06-08T12:06:42.641Z,36.00
2019-06-08T12:07:42.623Z,40.00
2019-06-08T12:08:42.613Z,40.00
2019-06-08T12:09:42.604Z,40.00
2019-06-08T12:10:42.598Z,44.00
2019-06-08T12:11:42.580Z,36.00
2019-06-08T12:12:42.582Z,36.00
2019-06-08T12:13:42.556Z,32.00
2019-06-08T12:14:42.546Z,32.00
2019-06-08T12:15:42.559Z,32.00
2019-06-08T12:16:42.532Z,36.00
2019-06-08T12:17:42.514Z,36.00
2019-06-08T12:18:42.517Z,36.00
2019-06-08T12:19:42.495Z,44.00
2019-06-08T12:20:42.482Z,44.00
2019-06-08T12:21:42.473Z,40.00
2019-06-08T12:22:42.486Z,40.00
2019-06-08T12:23:42.451Z,40.00
2019-06-08T12:24:42.777Z,36.00
2019-06-08T12:25:42.435Z,40.00
2019-06-08T12:26:42.425Z,40.00
2019-06-08T12:27:42.408Z,40.00
2019-06-08T12:28:42.397Z,40.00
2019-06-08T12:29:42.390Z,44.00
2019-06-08T12:30:42.375Z,40.00
2019-06-08T12:31:42.363Z,40.00
2019-06-08T12:32:42.353Z,44.00
2019-06-08T12:33:42.344Z,40.00
2019-06-08T12:34:42.336Z,40.00
2019-06-08T12:35:42.327Z,48.00
2019-06-08T12:36:42.321Z,48.00
2019-06-08T12:37:42.299Z,48.00
2019-06-08T12:38:42.293Z,48.00
2019-06-08T12:39:42.280Z,52.00
2019-06-08T12:40:42.270Z,52.00
2019-06-08T12:41:42.274Z,56.00
2019-06-08T12:42:42.246Z,52.00
2019-06-08T12:43:42.236Z,68.00
2019-06-08T12:44:43.742Z,68.00
2019-06-08T12:45:42.213Z,68.00
2019-06-08T12:46:42.205Z,60.00
2019-06-08T12:47:42.200Z,60.00
2019-06-08T12:48:42.220Z,60.00
2019-06-08T12:49:42.171Z,60.00
2019-06-08T12:50:42.160Z,60.00
2019-06-08T12:51:42.155Z,60.00
2019-06-08T12:52:43.255Z,64.00
2019-06-08T12:53:42.150Z,64.00
2019-06-08T12:54:56.392Z,56.00
2019-06-08T12:55:43.105Z,52.00
2019-06-08T12:56:42.098Z,52.00
2019-06-08T12:57:42.084Z,52.00
2019-06-08T12:58:42.077Z,52.00
2019-06-08T12:59:45.357Z,52.00
2019-06-08T13:00:42.058Z,52.00
2019-06-08T13:01:42.041Z,52.00
2019-06-08T13:02:42.046Z,48.00
2019-06-08T13:03:42.021Z,48.00
2019-06-08T13:04:42.016Z,44.00
2019-06-08T13:05:41.999Z,40.00
2019-06-08T13:06:41.986Z,40.00